^^
Datos históricos de la estación: Murcia-Puente Tocinos
Diario Informe para Agosto 11, 2022 Unidades:  Ambas    Ingés   Métrico
Diario Semanal Mensual Anual
  Máxima: Mínima: Promedio:
Temperatura: 92.8 °F /  33.8 °C 75.7 °F /  24.3 °C 84 °F /  28.9 °C
Punto de rocio: 73.4 °F /  23 °C 58.8 °F /  14.9 °C 66.9 °F /  19.4 °C
Humedad: 78.9% 33.1% 58%
Velocidad viento: 10mph /  16.1km/h - 5.2mph /  8.4km/h
Racha viento: 21.3mph /  34.3km/h - -
Viento- - ESE
Presión: 30 in /  1015.1 hPa 29.9 in /  1012.3 hPa -
Precipitación: 0 in /  0.0 mm    
 
 
Tabla de datos para Agosto 11, 2022
Hora Temperatura Punto de rocio Presión Viento Velocidad viento Racha viento Humedad Intensidad lluvia(por hora) Nubes
00:04 81.3 °F /  27.4 °C 73 °F /  22.8 °C 29.9in /  1013.9hPa Este 1.6mph /  2.5km/h 3.5mph /  5.6km/h 76% 0in /  0.0mm
00:09 81.1 °F /  27.3 °C 72.9 °F /  22.7 °C 29.9in /  1013.9hPa ENE 1.4mph /  2.3km/h 4.6mph /  7.4km/h 76% 0in /  0.0mm
00:14 81.1 °F /  27.3 °C 72.9 °F /  22.7 °C 29.9in /  1014.0hPa NE 1.7mph /  2.7km/h 3.5mph /  5.6km/h 76% 0in /  0.0mm
00:19 81.1 °F /  27.3 °C 72.9 °F /  22.7 °C 29.9in /  1014.0hPa NNO 1.8mph /  2.9km/h 3.6mph /  5.8km/h 76% 0in /  0.0mm
00:24 81.1 °F /  27.3 °C 72.9 °F /  22.7 °C 29.9in /  1014.0hPa Oeste 1.5mph /  2.4km/h 2.9mph /  4.7km/h 76% 0in /  0.0mm
00:29 81.1 °F /  27.3 °C 72.9 °F /  22.7 °C 29.9in /  1014.1hPa Oeste 1.4mph /  2.3km/h 2.4mph /  3.9km/h 76% 0in /  0.0mm
00:34 81 °F /  27.2 °C 72.9 °F /  22.7 °C 29.9in /  1014.1hPa Oeste 0.4mph /  0.6km/h   76% 0in /  0.0mm
00:39 81 °F /  27.2 °C 72.7 °F /  22.6 °C 29.9in /  1014.1hPa Calm     76% 0in /  0.0mm
00:44 81 °F /  27.2 °C 72.7 °F /  22.6 °C 29.9in /  1014.1hPa Calm   4.6mph /  7.4km/h 76% 0in /  0.0mm
00:49 81 °F /  27.2 °C 72.7 °F /  22.6 °C 29.9in /  1014.1hPa Calm   4.6mph /  7.4km/h 76% 0in /  0.0mm
00:54 80.8 °F /  27.1 °C 72.5 °F /  22.5 °C 29.9in /  1014.1hPa Oeste 2.1mph /  3.3km/h 4.6mph /  7.4km/h 76% 0in /  0.0mm
00:59 80.8 °F /  27.1 °C 72.5 °F /  22.5 °C 29.9in /  1014.1hPa Oeste 2.9mph /  4.7km/h 2.9mph /  4.7km/h 76% 0in /  0.0mm
01:04 81 °F /  27.2 °C 72.7 °F /  22.6 °C 29.9in /  1014.1hPa Oeste 2.1mph /  3.4km/h   76% 0in /  0.0mm
01:09 81 °F /  27.2 °C 72.7 °F /  22.6 °C 29.9in /  1014.1hPa Oeste 1.8mph /  2.9km/h   76% 0in /  0.0mm
01:14 81 °F /  27.2 °C 72.7 °F /  22.6 °C 29.9in /  1014.1hPa Oeste 0.6mph /  0.9km/h   76% 0in /  0.0mm
01:19 81 °F /  27.2 °C 72.7 °F /  22.6 °C 29.9in /  1014.0hPa Calm     76% 0in /  0.0mm
01:24 81 °F /  27.2 °C 72.7 °F /  22.6 °C 29.9in /  1014.0hPa Calm     76% 0in /  0.0mm
01:29 81 °F /  27.2 °C 72.7 °F /  22.6 °C 29.9in /  1014.0hPa Calm     76% 0in /  0.0mm
01:34 81 °F /  27.2 °C 72.7 °F /  22.6 °C 29.9in /  1014.0hPa Calm     76% 0in /  0.0mm
01:39 81 °F /  27.2 °C 72.7 °F /  22.6 °C 29.9in /  1014.0hPa Calm     75.9% 0in /  0.0mm
01:44 80.8 °F /  27.1 °C 72.5 °F /  22.5 °C 30in /  1014.2hPa Calm   2.4mph /  3.9km/h 76% 0in /  0.0mm
01:49 80.6 °F /  27 °C 72.3 °F /  22.4 °C 30in /  1014.2hPa Calm   2.9mph /  4.7km/h 76% 0in /  0.0mm
01:54 80.6 °F /  27 °C 72.3 °F /  22.4 °C 30in /  1014.2hPa Oeste 1mph /  1.6km/h 2.3mph /  3.7km/h 76% 0in /  0.0mm
01:59 80.4 °F /  26.9 °C 72.1 °F /  22.3 °C 30in /  1014.2hPa Oeste 1.4mph /  2.3km/h   76% 0in /  0.0mm
02:04 80.2 °F /  26.8 °C 72.1 °F /  22.3 °C 29.9in /  1013.9hPa Oeste 0.3mph /  0.5km/h   76% 0in /  0.0mm
02:09 80.2 °F /  26.8 °C 71.8 °F /  22.1 °C 29.9in /  1013.9hPa Calm   3.6mph /  5.8km/h 75.5% 0in /  0.0mm
02:14 79.9 °F /  26.6 °C 71.2 °F /  21.8 °C 29.9in /  1013.9hPa North 1.2mph /  2km/h 3.6mph /  5.8km/h 75% 0in /  0.0mm
02:19 79.3 °F /  26.3 °C 70.9 °F /  21.6 °C 29.9in /  1013.9hPa NO 1.8mph /  2.9km/h 4.6mph /  7.4km/h 75.3% 0in /  0.0mm
02:24 79.2 °F /  26.2 °C 71.1 °F /  21.7 °C 29.9in /  1013.9hPa NO 1.9mph /  3.1km/h 3.6mph /  5.8km/h 76% 0in /  0.0mm
02:29 79.2 °F /  26.2 °C 70.9 °F /  21.6 °C 29.9in /  1013.9hPa NO 2mph /  3.2km/h 2.9mph /  4.7km/h 76% 0in /  0.0mm
02:34 79.2 °F /  26.2 °C 70.9 °F /  21.6 °C 29.9in /  1013.9hPa NO 1.6mph /  2.5km/h 2.3mph /  3.7km/h 76% 0in /  0.0mm
02:39 79.2 °F /  26.2 °C 70.9 °F /  21.6 °C 29.9in /  1013.9hPa NO 1.4mph /  2.3km/h   76% 0in /  0.0mm
02:44 79 °F /  26.1 °C 70.9 °F /  21.6 °C 29.9in /  1013.9hPa NO 0.4mph /  0.7km/h   76% 0in /  0.0mm
02:49 79 °F /  26.1 °C 70.7 °F /  21.5 °C 29.9in /  1013.7hPa Calm   4.6mph /  7.4km/h 76% 0in /  0.0mm
02:54 78.8 °F /  26 °C 70.7 °F /  21.5 °C 29.9in /  1013.7hPa OSO 1mph /  1.6km/h 4.3mph /  6.9km/h 76% 0in /  0.0mm
02:59 79 °F /  26.1 °C 71.2 °F /  21.8 °C 29.9in /  1013.7hPa SE 1.4mph /  2.3km/h 4.6mph /  7.4km/h 77.2% 0in /  0.0mm
03:04 79 °F /  26.1 °C 71.4 °F /  21.9 °C 29.9in /  1013.7hPa SE 1.9mph /  3km/h 2.4mph /  3.9km/h 77.5% 0in /  0.0mm
03:09 79 °F /  26.1 °C 71.4 °F /  21.9 °C 29.9in /  1013.7hPa ESE 2mph /  3.2km/h   77.6% 0in /  0.0mm
03:14 78.8 °F /  26 °C 71.4 °F /  21.9 °C 29.9in /  1013.7hPa ESE 0.6mph /  0.9km/h   78% 0in /  0.0mm
03:19 78.6 °F /  25.9 °C 71.4 °F /  21.9 °C 29.9in /  1013.4hPa Calm     78.2% 0in /  0.0mm
03:24 78.6 °F /  25.9 °C 71.2 °F /  21.8 °C 29.9in /  1013.4hPa Calm     78.3% 0in /  0.0mm
03:29 78.6 °F /  25.9 °C 71.6 °F /  22 °C 29.9in /  1013.4hPa Calm   4.6mph /  7.4km/h 78.9% 0in /  0.0mm
03:34 78.6 °F /  25.9 °C 71.4 °F /  21.9 °C 29.9in /  1013.3hPa ESE 1mph /  1.6km/h 4mph /  6.4km/h 78.5% 0in /  0.0mm
03:39 78.6 °F /  25.9 °C 71.1 °F /  21.7 °C 29.9in /  1013.3hPa SSE 1.4mph /  2.3km/h 4.7mph /  7.6km/h 78% 0in /  0.0mm
03:44 78.4 °F /  25.8 °C 70.9 °F /  21.6 °C 29.9in /  1013.3hPa SSE 2.4mph /  3.9km/h 5.2mph /  8.4km/h 77.9% 0in /  0.0mm
03:49 78.4 °F /  25.8 °C 70.5 °F /  21.4 °C 29.9in /  1013.3hPa Sur 2.9mph /  4.7km/h 5.9mph /  9.5km/h 77% 0in /  0.0mm
03:54 78.3 °F /  25.7 °C 70.2 °F /  21.2 °C 29.9in /  1013.3hPa SSE 3.4mph /  5.5km/h 5.8mph /  9.3km/h 76.4% 0in /  0.0mm
03:59 78.3 °F /  25.7 °C 69.8 °F /  21 °C 29.9in /  1013.3hPa Sur 3.6mph /  5.8km/h 5.8mph /  9.3km/h 75.5% 0in /  0.0mm
04:04 78.1 °F /  25.6 °C 69.4 °F /  20.8 °C 29.9in /  1013.3hPa Sur 3.9mph /  6.3km/h 5.8mph /  9.3km/h 75% 0in /  0.0mm
04:09 78.1 °F /  25.6 °C 69.4 °F /  20.8 °C 29.9in /  1013.3hPa SSO 4mph /  6.4km/h 5.9mph /  9.5km/h 74.9% 0in /  0.0mm
04:14 78.1 °F /  25.6 °C 69.1 °F /  20.6 °C 29.9in /  1013.3hPa SSO 4mph /  6.4km/h 6.2mph /  10km/h 74% 0in /  0.0mm
04:19 78.1 °F /  25.6 °C 68.5 °F /  20.3 °C 29.9in /  1013.1hPa SSO 4mph /  6.4km/h 6.9mph /  11.1km/h 73.1% 0in /  0.0mm
04:24 77.7 °F /  25.4 °C 68.2 °F /  20.1 °C 29.9in /  1013.1hPa SSO 4.5mph /  7.2km/h 7.4mph /  11.9km/h 72.4% 0in /  0.0mm
04:29 77.5 °F /  25.3 °C 67.8 °F /  19.9 °C 29.9in /  1013.1hPa SSO 4.7mph /  7.6km/h 6.9mph /  11.1km/h 72% 0in /  0.0mm
04:34 77.5 °F /  25.3 °C 67.8 °F /  19.9 °C 29.9in /  1013.0hPa SSO 5mph /  8.1km/h 7.4mph /  11.9km/h 72% 0in /  0.0mm
04:39 77.5 °F /  25.3 °C 68 °F /  20 °C 29.9in /  1013.0hPa SO 5.2mph /  8.4km/h 6.9mph /  11.1km/h 72.6% 0in /  0.0mm
04:44 77.7 °F /  25.4 °C 68.4 °F /  20.2 °C 29.9in /  1013.1hPa SO 4.3mph /  7km/h 6.2mph /  10km/h 73% 0in /  0.0mm
04:49 77.5 °F /  25.3 °C 68.4 °F /  20.2 °C 29.9in /  1013.1hPa SO 4mph /  6.4km/h 7.4mph /  11.9km/h 73% 0in /  0.0mm
04:54 77.5 °F /  25.3 °C 68.2 °F /  20.1 °C 29.9in /  1013.1hPa SO 4.2mph /  6.8km/h 8.1mph /  13km/h 73% 0in /  0.0mm
04:59 77.5 °F /  25.3 °C 67.8 °F /  19.9 °C 29.9in /  1013.3hPa SO 4.3mph /  6.9km/h 6.4mph /  10.3km/h 72.2% 0in /  0.0mm
05:04 77.4 °F /  25.2 °C 67.6 °F /  19.8 °C 29.9in /  1013.3hPa SO 4.3mph /  6.9km/h 8.5mph /  13.7km/h 72% 0in /  0.0mm
05:09 77.4 °F /  25.2 °C 67.5 °F /  19.7 °C 29.9in /  1013.3hPa SO 4.3mph /  6.9km/h 8.1mph /  13km/h 71.7% 0in /  0.0mm
05:14 77.4 °F /  25.2 °C 67.1 °F /  19.5 °C 29.9in /  1013.3hPa SO 4.6mph /  7.4km/h 7.4mph /  11.9km/h 71% 0in /  0.0mm
05:19 77.2 °F /  25.1 °C 66.7 °F /  19.3 °C 29.9in /  1013.3hPa SO 4.7mph /  7.6km/h 8.5mph /  13.7km/h 70.5% 0in /  0.0mm
05:24 77.2 °F /  25.1 °C 66.4 °F /  19.1 °C 29.9in /  1013.3hPa SO 4.7mph /  7.6km/h 8.1mph /  13km/h 69.7% 0in /  0.0mm
05:29 77 °F /  25 °C 66 °F /  18.9 °C 29.9in /  1013.3hPa SO 4.7mph /  7.6km/h 5.9mph /  9.5km/h 69% 0in /  0.0mm
05:34 77 °F /  25 °C 66 °F /  18.9 °C 29.9in /  1013.3hPa SSO 3.9mph /  6.3km/h 4.6mph /  7.4km/h 69% 0in /  0.0mm
05:39 76.8 °F /  24.9 °C 65.8 °F /  18.8 °C 29.9in /  1013.3hPa SSO 3.6mph /  5.8km/h 5.9mph /  9.5km/h 69% 0in /  0.0mm
05:44 76.8 °F /  24.9 °C 65.8 °F /  18.8 °C 29.9in /  1013.3hPa SO 3.6mph /  5.8km/h 6.2mph /  10km/h 69% 0in /  0.0mm
05:49 76.6 °F /  24.8 °C 65.5 °F /  18.6 °C 29.9in /  1013.2hPa SO 3.6mph /  5.8km/h 6.2mph /  10km/h 68.4% 0in /  0.0mm
05:54 76.6 °F /  24.8 °C 65.3 °F /  18.5 °C 29.9in /  1013.2hPa SO 3.6mph /  5.8km/h 5.8mph /  9.3km/h 68% 0in /  0.0mm
05:59 76.6 °F /  24.8 °C 64.9 °F /  18.3 °C 29.9in /  1013.2hPa SO 3.6mph /  5.8km/h 5.2mph /  8.4km/h 67% 0in /  0.0mm
06:04 76.6 °F /  24.8 °C 64.9 °F /  18.3 °C 29.9in /  1013.1hPa SO 3mph /  4.9km/h 5.9mph /  9.5km/h 67% 0in /  0.0mm
06:09 76.6 °F /  24.8 °C 64.9 °F /  18.3 °C 29.9in /  1013.1hPa SO 2.9mph /  4.7km/h 5.8mph /  9.3km/h 67% 0in /  0.0mm
06:14 76.6 °F /  24.8 °C 64.6 °F /  18.1 °C 29.9in /  1013.2hPa SSO 3.4mph /  5.5km/h 4.7mph /  7.6km/h 66.5% 0in /  0.0mm
06:19 76.6 °F /  24.8 °C 64.4 °F /  18 °C 29.9in /  1013.2hPa SSO 3.6mph /  5.8km/h 6.2mph /  10km/h 66% 0in /  0.0mm
06:24 76.6 °F /  24.8 °C 64.4 °F /  18 °C 29.9in /  1013.2hPa SSO 3.6mph /  5.8km/h 5.9mph /  9.5km/h 66% 0in /  0.0mm
06:29 76.5 °F /  24.7 °C 64.4 °F /  18 °C 29.9in /  1013.3hPa SSO 3.6mph /  5.8km/h 6.9mph /  11.1km/h 66% 0in /  0.0mm
06:34 76.5 °F /  24.7 °C 64 °F /  17.8 °C 29.9in /  1013.3hPa SSO 4.1mph /  6.6km/h 7.4mph /  11.9km/h 65.5% 0in /  0.0mm
06:39 76.3 °F /  24.6 °C 63.7 °F /  17.6 °C 29.9in /  1013.3hPa SSO 4.3mph /  6.9km/h 8.5mph /  13.7km/h 65% 0in /  0.0mm
06:44 76.3 °F /  24.6 °C 63.7 °F /  17.6 °C 29.9in /  1013.4hPa SSO 4.9mph /  7.9km/h 5.8mph /  9.3km/h 65% 0in /  0.0mm
06:49 76.3 °F /  24.6 °C 63.7 °F /  17.6 °C 29.9in /  1013.4hPa SSO 5.2mph /  8.4km/h 8.1mph /  13km/h 65% 0in /  0.0mm
06:54 75.9 °F /  24.4 °C 63.3 °F /  17.4 °C 29.9in /  1013.4hPa SSO 4.8mph /  7.8km/h 8.1mph /  13km/h 65% 0in /  0.0mm
06:59 75.9 °F /  24.4 °C 63.3 °F /  17.4 °C 29.9in /  1013.5hPa Sur 4.7mph /  7.6km/h 6.9mph /  11.1km/h 65% 0in /  0.0mm
07:04 75.9 °F /  24.4 °C 63.7 °F /  17.6 °C 29.9in /  1013.5hPa SSO 4.7mph /  7.6km/h 8.1mph /  13km/h 65.9% 0in /  0.0mm
07:09 75.7 °F /  24.3 °C 63.1 °F /  17.3 °C 29.9in /  1013.5hPa SSO 4.7mph /  7.6km/h 8.7mph /  14km/h 65.2% 0in /  0.0mm
07:14 75.7 °F /  24.3 °C 62.8 °F /  17.1 °C 29.9in /  1013.6hPa SSO 5.2mph /  8.4km/h 9.2mph /  14.8km/h 64.1% 0in /  0.0mm
07:19 75.7 °F /  24.3 °C 62.6 °F /  17 °C 29.9in /  1013.6hPa SSO 5.4mph /  8.7km/h 7.4mph /  11.9km/h 63.7% 0in /  0.0mm
07:24 75.7 °F /  24.3 °C 62.2 °F /  16.8 °C 29.9in /  1013.6hPa SSO 4.9mph /  7.9km/h 7.4mph /  11.9km/h 63% 0in /  0.0mm
07:29 75.7 °F /  24.3 °C 62.2 °F /  16.8 °C 29.9in /  1013.7hPa SSO 4.7mph /  7.6km/h 6.9mph /  11.1km/h 62.9% 0in /  0.0mm
07:34 75.7 °F /  24.3 °C 61.9 °F /  16.6 °C 29.9in /  1013.7hPa SSO 4.4mph /  7.1km/h 7.6mph /  12.2km/h 62% 0in /  0.0mm
07:39 75.7 °F /  24.3 °C 61.9 °F /  16.6 °C 29.9in /  1013.7hPa SSO 4.3mph /  6.9km/h 8.1mph /  13km/h 62% 0in /  0.0mm
07:44 75.7 °F /  24.3 °C 61.9 °F /  16.6 °C 29.9in /  1013.7hPa SSO 4.3mph /  6.9km/h 6.4mph /  10.3km/h 62% 0in /  0.0mm
07:49 75.9 °F /  24.4 °C 62.1 °F /  16.7 °C 29.9in /  1013.7hPa SSO 4.3mph /  6.9km/h 6.9mph /  11.1km/h 62% 0in /  0.0mm
07:54 75.9 °F /  24.4 °C 62.1 °F /  16.7 °C 29.9in /  1013.7hPa SSO 4.3mph /  6.9km/h 6.2mph /  10km/h 62% 0in /  0.0mm
07:59 75.9 °F /  24.4 °C 62.1 °F /  16.7 °C 29.9in /  1013.8hPa SSO 4.3mph /  6.9km/h 5.9mph /  9.5km/h 62% 0in /  0.0mm
08:04 75.9 °F /  24.4 °C 62.1 °F /  16.7 °C 29.9in /  1013.8hPa SSO 4.3mph /  6.9km/h 8.1mph /  13km/h 62% 0in /  0.0mm
08:09 75.9 °F /  24.4 °C 61.7 °F /  16.5 °C 29.9in /  1013.8hPa SSO 4.3mph /  6.9km/h 8.1mph /  13km/h 61.5% 0in /  0.0mm
08:14 75.9 °F /  24.4 °C 61.5 °F /  16.4 °C 29.9in /  1013.8hPa SSO 5.1mph /  8.2km/h 8.1mph /  13km/h 61% 0in /  0.0mm
08:19 75.9 °F /  24.4 °C 61.5 °F /  16.4 °C 29.9in /  1013.7hPa SSO 5.4mph /  8.7km/h 6.9mph /  11.1km/h 61% 0in /  0.0mm
08:24 76.3 °F /  24.6 °C 61.9 °F /  16.6 °C 29.9in /  1013.7hPa SSO 4.9mph /  7.9km/h 7.4mph /  11.9km/h 61% 0in /  0.0mm
08:29 76.5 °F /  24.7 °C 61.9 °F /  16.6 °C 29.9in /  1013.8hPa SSO 4.7mph /  7.6km/h 7.4mph /  11.9km/h 61% 0in /  0.0mm
08:34 76.6 °F /  24.8 °C 61.7 °F /  16.5 °C 29.9in /  1013.8hPa SO 4.4mph /  7.1km/h 7.4mph /  11.9km/h 60.3% 0in /  0.0mm
08:39 76.6 °F /  24.8 °C 61.3 °F /  16.3 °C 29.9in /  1013.8hPa SO 4.3mph /  6.9km/h 6.9mph /  11.1km/h 59.1% 0in /  0.0mm
08:44 77 °F /  25 °C 61.5 °F /  16.4 °C 29.9in /  1013.8hPa SO 4.3mph /  6.9km/h 6.9mph /  11.1km/h 59% 0in /  0.0mm
08:49 77.4 °F /  25.2 °C 61.7 °F /  16.5 °C 29.9in /  1013.8hPa SO 4.3mph /  6.9km/h 6.9mph /  11.1km/h 59% 0in /  0.0mm
08:54 77.4 °F /  25.2 °C 61.5 °F /  16.4 °C 29.9in /  1013.8hPa SSO 4.1mph /  6.6km/h 6.9mph /  11.1km/h 58.3% 0in /  0.0mm
08:59 77.4 °F /  25.2 °C 61.5 °F /  16.4 °C 29.9in /  1014.0hPa SSO 4mph /  6.4km/h 6.9mph /  11.1km/h 58.2% 0in /  0.0mm
09:04 77.5 °F /  25.3 °C 61.7 °F /  16.5 °C 29.9in /  1014.0hPa SSO 4.2mph /  6.8km/h 8.1mph /  13km/h 58% 0in /  0.0mm
09:09 77.9 °F /  25.5 °C 61.9 °F /  16.6 °C 29.9in /  1014.0hPa SSO 4.3mph /  6.9km/h 9.7mph /  15.6km/h 57.9% 0in /  0.0mm
09:14 77.9 °F /  25.5 °C 61.9 °F /  16.6 °C 29.9in /  1014.1hPa SSO 5.1mph /  8.2km/h 8.1mph /  13km/h 57.8% 0in /  0.0mm
09:19 77.9 °F /  25.5 °C 61.7 °F /  16.5 °C 29.9in /  1014.1hPa SSO 5.4mph /  8.7km/h 8.5mph /  13.7km/h 57.3% 0in /  0.0mm
09:24 78.1 °F /  25.6 °C 61.5 °F /  16.4 °C 29.9in /  1014.1hPa SO 5.3mph /  8.5km/h 6.9mph /  11.1km/h 57% 0in /  0.0mm
09:29 78.3 °F /  25.7 °C 61 °F /  16.1 °C 29.9in /  1014.1hPa SO 5.2mph /  8.4km/h 9.2mph /  14.8km/h 55.7% 0in /  0.0mm
09:34 78.4 °F /  25.8 °C 61 °F /  16.1 °C 29.9in /  1014.1hPa SO 4.8mph /  7.8km/h 8.5mph /  13.7km/h 55.1% 0in /  0.0mm
09:39 78.8 °F /  26 °C 61 °F /  16.1 °C 29.9in /  1014.1hPa SO 4.7mph /  7.6km/h 8.1mph /  13km/h 54.6% 0in /  0.0mm
09:44 79.2 °F /  26.2 °C 61 °F /  16.1 °C 29.9in /  1014.1hPa SSO 4.4mph /  7.1km/h 8.5mph /  13.7km/h 53.8% 0in /  0.0mm
09:49 79.3 °F /  26.3 °C 60.8 °F /  16 °C 29.9in /  1014.1hPa SO 4.3mph /  6.9km/h 8.1mph /  13km/h 53.3% 0in /  0.0mm
09:54 79.5 °F /  26.4 °C 60.8 °F /  16 °C 29.9in /  1014.1hPa SSO 4.9mph /  7.9km/h 7.4mph /  11.9km/h 53% 0in /  0.0mm
09:59 79.9 °F /  26.6 °C 61.2 °F /  16.2 °C 29.9in /  1014.1hPa SO 5.2mph /  8.4km/h 8.1mph /  13km/h 53% 0in /  0.0mm
10:04 79.9 °F /  26.6 °C 61.2 °F /  16.2 °C 29.9in /  1014.1hPa SO 4.8mph /  7.8km/h 8.1mph /  13km/h 53% 0in /  0.0mm
10:09 80.1 °F /  26.7 °C 61.3 °F /  16.3 °C 29.9in /  1014.1hPa SO 4.7mph /  7.6km/h 6.9mph /  11.1km/h 52.9% 0in /  0.0mm
10:14 80.2 °F /  26.8 °C 61.3 °F /  16.3 °C 29.9in /  1014.1hPa SSO 3.9mph /  6.3km/h 6.9mph /  11.1km/h 52.3% 0in /  0.0mm
10:19 80.8 °F /  27.1 °C 61.3 °F /  16.3 °C 29.9in /  1014.1hPa SO 3.6mph /  5.8km/h 6.2mph /  10km/h 52% 0in /  0.0mm
10:24 81.1 °F /  27.3 °C 61.7 °F /  16.5 °C 29.9in /  1014.1hPa SSO 3.2mph /  5.2km/h 6.9mph /  11.1km/h 51.8% 0in /  0.0mm
10:29 81.5 °F /  27.5 °C 61.7 °F /  16.5 °C 29.9in /  1014.1hPa SO 3.1mph /  5km/h 6.9mph /  11.1km/h 51% 0in /  0.0mm
10:34 81.7 °F /  27.6 °C 61.9 °F /  16.6 °C 29.9in /  1014.1hPa SO 3.8mph /  6.1km/h 5.2mph /  8.4km/h 51% 0in /  0.0mm
10:39 82 °F /  27.8 °C 61.9 °F /  16.6 °C 29.9in /  1014.1hPa SSO 4mph /  6.4km/h 6.9mph /  11.1km/h 50.5% 0in /  0.0mm
10:44 82.8 °F /  28.2 °C 62.1 °F /  16.7 °C 29.9in /  1014.1hPa SSO 3.7mph /  6km/h 6.9mph /  11.1km/h 50% 0in /  0.0mm
10:49 83.1 °F /  28.4 °C 62.2 °F /  16.8 °C 29.9in /  1014.0hPa SSO 3.6mph /  5.8km/h 4.7mph /  7.6km/h 49.7% 0in /  0.0mm
10:54 83.7 °F /  28.7 °C 62.2 °F /  16.8 °C 29.9in /  1014.0hPa OSO 3.2mph /  5.2km/h 5.2mph /  8.4km/h 48.6% 0in /  0.0mm
10:59 84.2 °F /  29 °C 62.6 °F /  17 °C 29.9in /  1014.1hPa NNO 3.1mph /  5km/h 4.7mph /  7.6km/h 48.3% 0in /  0.0mm
11:04 85.1 °F /  29.5 °C 63.5 °F /  17.5 °C 29.9in /  1014.1hPa NE 2.3mph /  3.7km/h 3.6mph /  5.8km/h 48.5% 0in /  0.0mm
11:09 85.6 °F /  29.8 °C 63.7 °F /  17.6 °C 29.9in /  1014.1hPa North 2mph /  3.2km/h 4.6mph /  7.4km/h 48% 0in /  0.0mm
11:14 86.4 °F /  30.2 °C 64 °F /  17.8 °C 29.9in /  1014.1hPa NNE 2.3mph /  3.7km/h 4.7mph /  7.6km/h 47.4% 0in /  0.0mm
11:19 87.3 °F /  30.7 °C 64.6 °F /  18.1 °C 29.9in /  1014.1hPa NNE 2.4mph /  3.9km/h 4.6mph /  7.4km/h 47.2% 0in /  0.0mm
11:24 88 °F /  31.1 °C 65.5 °F /  18.6 °C 29.9in /  1014.1hPa NE 2.1mph /  3.4km/h 4.6mph /  7.4km/h 47.3% 0in /  0.0mm
11:29 88.3 °F /  31.3 °C 65.3 °F /  18.5 °C 29.9in /  1014.1hPa NE 2mph /  3.2km/h 9.2mph /  14.8km/h 46.7% 0in /  0.0mm
11:34 87.8 °F /  31 °C 65.5 °F /  18.6 °C 29.9in /  1014.1hPa NE 3.2mph /  5.1km/h 9.2mph /  14.8km/h 47.6% 0in /  0.0mm
11:39 87.6 °F /  30.9 °C 65.5 °F /  18.6 °C 29.9in /  1014.1hPa NE 3.6mph /  5.8km/h 12.7mph /  20.4km/h 48.1% 0in /  0.0mm
11:44 87.6 °F /  30.9 °C 65.5 °F /  18.6 °C 29.9in /  1014.1hPa NNE 3.2mph /  5.2km/h 8.1mph /  13km/h 48% 0in /  0.0mm
11:49 87.4 °F /  30.8 °C 65.7 °F /  18.7 °C 29.9in /  1014.0hPa NNE 3.1mph /  5km/h 10.4mph /  16.7km/h 48.4% 0in /  0.0mm
11:54 87.3 °F /  30.7 °C 65.8 °F /  18.8 °C 29.9in /  1014.0hPa NE 4.7mph /  7.5km/h 12.5mph /  20.1km/h 49% 0in /  0.0mm
11:59 87.4 °F /  30.8 °C 65.8 °F /  18.8 °C 29.9in /  1014.0hPa NE 5.4mph /  8.7km/h 12.7mph /  20.4km/h 48.9% 0in /  0.0mm
12:04 87.4 °F /  30.8 °C 65.8 °F /  18.8 °C 29.9in /  1013.8hPa NE 5.2mph /  8.4km/h 8.1mph /  13km/h 48.9% 0in /  0.0mm
12:09 88 °F /  31.1 °C 66 °F /  18.9 °C 29.9in /  1013.8hPa NE 5.2mph /  8.4km/h 9.7mph /  15.6km/h 48.4% 0in /  0.0mm
12:14 88.3 °F /  31.3 °C 66.2 °F /  19 °C 29.9in /  1013.8hPa ENE 4.8mph /  7.8km/h 9.2mph /  14.8km/h 48% 0in /  0.0mm
12:19 88.7 °F /  31.5 °C 66.6 °F /  19.2 °C 29.9in /  1013.7hPa NE 4.7mph /  7.6km/h 11.8mph /  19km/h 48.1% 0in /  0.0mm
12:24 89.1 °F /  31.7 °C 66.4 °F /  19.1 °C 29.9in /  1013.7hPa ENE 5mph /  8.1km/h 9.2mph /  14.8km/h 47% 0in /  0.0mm
12:29 89.2 °F /  31.8 °C 66.4 °F /  19.1 °C 29.9in /  1013.7hPa NE 5.2mph /  8.4km/h 13.8mph /  22.2km/h 46.8% 0in /  0.0mm
12:34 89.6 °F /  32 °C 66.2 °F /  19 °C 29.9in /  1013.6hPa NE 6.7mph /  10.8km/h 15mph /  24.1km/h 46.2% 0in /  0.0mm
12:39 90 °F /  32.2 °C 66.7 °F /  19.3 °C 29.9in /  1013.6hPa ENE 7.4mph /  11.9km/h 12.7mph /  20.4km/h 46.7% 0in /  0.0mm
12:44 90.1 °F /  32.3 °C 66.4 °F /  19.1 °C 29.9in /  1013.6hPa ENE 7.4mph /  11.9km/h 15mph /  24.1km/h 45.5% 0in /  0.0mm
12:49 90.1 °F /  32.3 °C 67.3 °F /  19.6 °C 29.9in /  1013.6hPa NNE 7.4mph /  11.9km/h 16.3mph /  26.2km/h 47% 0in /  0.0mm
12:54 90 °F /  32.2 °C 66.6 °F /  19.2 °C 29.9in /  1013.6hPa NE 9mph /  14.5km/h 17.5mph /  28.2km/h 46.2% 0in /  0.0mm
12:59 90 °F /  32.2 °C 67.6 °F /  19.8 °C 29.9in /  1013.6hPa NE 9.7mph /  15.6km/h 14mph /  22.5km/h 47.9% 0in /  0.0mm
13:04 89.8 °F /  32.1 °C 67.3 °F /  19.6 °C 29.9in /  1013.6hPa NE 8.9mph /  14.4km/h 17.5mph /  28.2km/h 47.7% 0in /  0.0mm
13:09 89.8 °F /  32.1 °C 67.5 °F /  19.7 °C 29.9in /  1013.6hPa ENE 8.7mph /  14km/h 17.3mph /  27.8km/h 47.8% 0in /  0.0mm
13:14 90.1 °F /  32.3 °C 67.1 °F /  19.5 °C 29.9in /  1013.7hPa Este 9.1mph /  14.6km/h 16.3mph /  26.2km/h 46.9% 0in /  0.0mm
13:19 90.3 °F /  32.4 °C 67.6 °F /  19.8 °C 29.9in /  1013.7hPa ENE 9.2mph /  14.8km/h 14mph /  22.5km/h 47.4% 0in /  0.0mm
13:24 90.5 °F /  32.5 °C 68.2 °F /  20.1 °C 29.9in /  1013.7hPa NE 8mph /  12.8km/h 18.1mph /  29.1km/h 48% 0in /  0.0mm
13:29 90.3 °F /  32.4 °C 67.3 °F /  19.6 °C 29.9in /  1013.7hPa NE 7.4mph /  11.9km/h 18.4mph /  29.6km/h 46.8% 0in /  0.0mm
13:34 90.3 °F /  32.4 °C 67.8 °F /  19.9 °C 29.9in /  1013.7hPa NE 9mph /  14.5km/h 19.2mph /  30.9km/h 47.6% 0in /  0.0mm
13:39 90.3 °F /  32.4 °C 67.5 °F /  19.7 °C 29.9in /  1013.7hPa NE 9.7mph /  15.6km/h 19.6mph /  31.5km/h 47.2% 0in /  0.0mm
13:44 90.7 °F /  32.6 °C 67.1 °F /  19.5 °C 29.9in /  1013.7hPa NE 9.3mph /  15km/h 16.1mph /  25.9km/h 46% 0in /  0.0mm
13:49 91 °F /  32.8 °C 66.4 °F /  19.1 °C 29.9in /  1013.7hPa ENE 9.2mph /  14.8km/h 15mph /  24.1km/h 44.3% 0in /  0.0mm
13:54 91.2 °F /  32.9 °C 65.5 °F /  18.6 °C 29.9in /  1013.7hPa ENE 8.1mph /  13km/h 15mph /  24.1km/h 42.8% 0in /  0.0mm
13:59 91 °F /  32.8 °C 66.6 °F /  19.2 °C 29.9in /  1013.7hPa NE 7.6mph /  12.2km/h 18.4mph /  29.6km/h 44.6% 0in /  0.0mm
14:04 91 °F /  32.8 °C 65.7 °F /  18.7 °C 29.9in /  1013.6hPa ENE 8.4mph /  13.6km/h 18.4mph /  29.6km/h 43.5% 0in /  0.0mm
14:09 91 °F /  32.8 °C 65.5 °F /  18.6 °C 29.9in /  1013.6hPa Este 8.7mph /  14km/h 15.2mph /  24.5km/h 42.9% 0in /  0.0mm
14:14 91.4 °F /  33 °C 66.9 °F /  19.4 °C 29.9in /  1013.6hPa ENE 8.6mph /  13.8km/h 17.3mph /  27.8km/h 44.8% 0in /  0.0mm
14:19 91.2 °F /  32.9 °C 66.7 °F /  19.3 °C 29.9in /  1013.6hPa NE 8.5mph /  13.7km/h 16.3mph /  26.2km/h 44.8% 0in /  0.0mm
14:24 91 °F /  32.8 °C 66.9 °F /  19.4 °C 29.9in /  1013.6hPa NE 8.5mph /  13.7km/h 16.1mph /  25.9km/h 45.3% 0in /  0.0mm
14:29 91 °F /  32.8 °C 65.5 °F /  18.6 °C 29.9in /  1013.7hPa NE 8.5mph /  13.7km/h 15mph /  24.1km/h 42.9% 0in /  0.0mm
14:34 91.2 °F /  32.9 °C 66.4 °F /  19.1 °C 29.9in /  1013.7hPa ENE 7.8mph /  12.6km/h 16.1mph /  25.9km/h 44.1% 0in /  0.0mm
14:39 91.2 °F /  32.9 °C 66.7 °F /  19.3 °C 29.9in /  1013.7hPa NE 7.6mph /  12.2km/h 14.5mph /  23.3km/h 44.8% 0in /  0.0mm
14:44 91.4 °F /  33 °C 65.1 °F /  18.4 °C 29.9in /  1013.7hPa ENE 8.2mph /  13.2km/h 15mph /  24.1km/h 42.1% 0in /  0.0mm
14:49 91.8 °F /  33.2 °C 64.4 °F /  18 °C 29.9in /  1013.7hPa ENE 8.5mph /  13.7km/h 14mph /  22.5km/h 40.6% 0in /  0.0mm
14:54 91.9 °F /  33.3 °C 64.8 °F /  18.2 °C 29.9in /  1013.7hPa Este 7.8mph /  12.6km/h 11.8mph /  19km/h 41% 0in /  0.0mm
14:59 91.9 °F /  33.3 °C 64.4 °F /  18 °C 29.9in /  1013.7hPa NE 7.6mph /  12.2km/h 16.3mph /  26.2km/h 40.2% 0in /  0.0mm
15:04 92.1 °F /  33.4 °C 65.1 °F /  18.4 °C 29.9in /  1013.5hPa ENE 8mph /  12.8km/h 13.8mph /  22.2km/h 41.1% 0in /  0.0mm
15:09 92.3 °F /  33.5 °C 65.3 °F /  18.5 °C 29.9in /  1013.5hPa Este 8.1mph /  13km/h 12.7mph /  20.4km/h 41.2% 0in /  0.0mm
15:14 92.7 °F /  33.7 °C 65.5 °F /  18.6 °C 29.9in /  1013.5hPa ENE 6.9mph /  11.1km/h 12.7mph /  20.4km/h 41% 0in /  0.0mm
15:19 92.8 °F /  33.8 °C 64.6 °F /  18.1 °C 29.9in /  1013.5hPa Este 6.4mph /  10.3km/h 18.4mph /  29.6km/h 39.4% 0in /  0.0mm
15:24 92.5 °F /  33.6 °C 63.9 °F /  17.7 °C 29.9in /  1013.5hPa ENE 7.3mph /  11.7km/h 19.7mph /  31.7km/h 38.9% 0in /  0.0mm
15:29 91.9 °F /  33.3 °C 64.9 °F /  18.3 °C 29.9in /  1013.5hPa NE 7.6mph /  12.2km/h 19.6mph /  31.5km/h 41.2% 0in /  0.0mm
15:34 91.6 °F /  33.1 °C 65.8 °F /  18.8 °C 29.9in /  1013.4hPa NE 9.3mph /  15km/h 21.3mph /  34.3km/h 42.9% 0in /  0.0mm
15:39 91.6 °F /  33.1 °C 64.4 °F /  18 °C 29.9in /  1013.4hPa NE 10mph /  16.1km/h 20.7mph /  33.3km/h 40.9% 0in /  0.0mm
15:44 91.8 °F /  33.2 °C 65.7 °F /  18.7 °C 29.9in /  1013.4hPa NE 9.1mph /  14.6km/h 18.1mph /  29.1km/h 42.5% 0in /  0.0mm
15:49 91.8 °F /  33.2 °C 66 °F /  18.9 °C 29.9in /  1013.3hPa NE 8.7mph /  14km/h 18.4mph /  29.6km/h 43% 0in /  0.0mm
15:54 91.6 °F /  33.1 °C 65.8 °F /  18.8 °C 29.9in /  1013.3hPa NE 9.1mph /  14.6km/h 18.1mph /  29.1km/h 42.8% 0in /  0.0mm
15:59 91.4 °F /  33 °C 64.8 °F /  18.2 °C 29.9in /  1013.3hPa NE 9.2mph /  14.8km/h 18.4mph /  29.6km/h 41.6% 0in /  0.0mm
16:04 91.6 °F /  33.1 °C 65.3 °F /  18.5 °C 29.9in /  1013.2hPa NE 9.8mph /  15.8km/h 18.4mph /  29.6km/h 42.1% 0in /  0.0mm
16:09 91.4 °F /  33 °C 65.1 °F /  18.4 °C 29.9in /  1013.2hPa NE 10mph /  16.1km/h 16.3mph /  26.2km/h 42% 0in /  0.0mm
16:14 91.8 °F /  33.2 °C 64.8 °F /  18.2 °C 29.9in /  1013.2hPa NE 9.4mph /  15.2km/h 17.5mph /  28.2km/h 41.1% 0in /  0.0mm
16:19 91.6 °F /  33.1 °C 64.4 °F /  18 °C 29.9in /  1013.1hPa NNE 9.2mph /  14.8km/h 15mph /  24.1km/h 40.7% 0in /  0.0mm
16:24 91.9 °F /  33.3 °C 64.2 °F /  17.9 °C 29.9in /  1013.1hPa NE 9.2mph /  14.8km/h 16.1mph /  25.9km/h 40.2% 0in /  0.0mm
16:29 91.9 °F /  33.3 °C 64.9 °F /  18.3 °C 29.9in /  1013.1hPa ENE 9.2mph /  14.8km/h 15.2mph /  24.5km/h 41% 0in /  0.0mm
16:34 92.1 °F /  33.4 °C 65.1 °F /  18.4 °C 29.9in /  1013.0hPa NE 8.7mph /  14km/h 15mph /  24.1km/h 41.1% 0in /  0.0mm
16:39 92.1 °F /  33.4 °C 64.2 °F /  17.9 °C 29.9in /  1013.0hPa NE 8.5mph /  13.7km/h 18.4mph /  29.6km/h 39.9% 0in /  0.0mm
16:44 91.9 °F /  33.3 °C 64.8 °F /  18.2 °C 29.9in /  1013.0hPa NE 8.6mph /  13.9km/h 18.4mph /  29.6km/h 40.8% 0in /  0.0mm
16:49 91.8 °F /  33.2 °C 65.3 °F /  18.5 °C 29.9in /  1012.9hPa ENE 8.7mph /  14km/h 17.3mph /  27.8km/h 41.6% 0in /  0.0mm
16:54 91.9 °F /  33.3 °C 65.5 °F /  18.6 °C 29.9in /  1012.9hPa ENE 9.1mph /  14.6km/h 15.2mph /  24.5km/h 42% 0in /  0.0mm
16:59 91.8 °F /  33.2 °C 65.3 °F /  18.5 °C 29.9in /  1012.9hPa NE 9.2mph /  14.8km/h 18.4mph /  29.6km/h 41.8% 0in /  0.0mm
17:04 91.6 °F /  33.1 °C 65.3 °F /  18.5 °C 29.9in /  1012.9hPa NE 9.6mph /  15.4km/h 18.4mph /  29.6km/h 42.1% 0in /  0.0mm
17:09 91.6 °F /  33.1 °C 65.8 °F /  18.8 °C 29.9in /  1012.9hPa NE 9.7mph /  15.6km/h 20.1mph /  32.3km/h 43% 0in /  0.0mm
17:14 91.6 °F /  33.1 °C 65.3 °F /  18.5 °C 29.9in /  1012.9hPa ENE 9.4mph /  15.1km/h 20.7mph /  33.3km/h 42.1% 0in /  0.0mm
17:19 91.8 °F /  33.2 °C 64.9 °F /  18.3 °C 29.9in /  1012.8hPa NE 9.2mph /  14.8km/h 15.2mph /  24.5km/h 41.4% 0in /  0.0mm
17:24 91.8 °F /  33.2 °C 64.2 °F /  17.9 °C 29.9in /  1012.8hPa NE 8.7mph /  14km/h 16.3mph /  26.2km/h 40.4% 0in /  0.0mm
17:29 91.8 °F /  33.2 °C 63.1 °F /  17.3 °C 29.9in /  1012.8hPa NE 8.5mph /  13.7km/h 17.3mph /  27.8km/h 38.8% 0in /  0.0mm
17:34 91.8 °F /  33.2 °C 62.4 °F /  16.9 °C 29.9in /  1012.6hPa NE 8.6mph /  13.9km/h 19mph /  30.6km/h 38% 0in /  0.0mm
17:39 91.9 °F /  33.3 °C 63 °F /  17.2 °C 29.9in /  1012.6hPa NE 8.7mph /  14km/h 15mph /  24.1km/h 38.4% 0in /  0.0mm
17:44 91.9 °F /  33.3 °C 64 °F /  17.8 °C 29.9in /  1012.6hPa NE 8.6mph /  13.8km/h 12.7mph /  20.4km/h 39.8% 0in /  0.0mm
17:49 92.1 °F /  33.4 °C 61.7 °F /  16.5 °C 29.9in /  1012.5hPa NE 8.5mph /  13.7km/h 15mph /  24.1km/h 36.6% 0in /  0.0mm
17:54 92.1 °F /  33.4 °C 61.3 °F /  16.3 °C 29.9in /  1012.5hPa NE 8.2mph /  13.2km/h 14mph /  22.5km/h 36.1% 0in /  0.0mm
17:59 91.9 °F /  33.3 °C 62.6 °F /  17 °C 29.9in /  1012.6hPa NE 8.1mph /  13km/h 16.1mph /  25.9km/h 37.9% 0in /  0.0mm
18:04 91.6 °F /  33.1 °C 61.5 °F /  16.4 °C 29.9in /  1012.6hPa NE 8.9mph /  14.4km/h 16.1mph /  25.9km/h 36.9% 0in /  0.0mm
18:09 91.8 °F /  33.2 °C 61.7 °F /  16.5 °C 29.9in /  1012.6hPa NE 9.2mph /  14.8km/h 16.3mph /  26.2km/h 36.8% 0in /  0.0mm
18:14 91.8 °F /  33.2 °C 59.7 °F /  15.4 °C 29.9in /  1012.6hPa NE 8.1mph /  13km/h 14mph /  22.5km/h 34.4% 0in /  0.0mm
18:19 91.9 °F /  33.3 °C 60.8 °F /  16 °C 29.9in /  1012.6hPa ENE 7.6mph /  12.2km/h 16.3mph /  26.2km/h 35.5% 0in /  0.0mm
18:24 91.9 °F /  33.3 °C 59.9 °F /  15.5 °C 29.9in /  1012.6hPa NE 8.3mph /  13.3km/h 16.3mph /  26.2km/h 34.5% 0in /  0.0mm
18:29 91.9 °F /  33.3 °C 58.8 °F /  14.9 °C 29.9in /  1012.6hPa NE 8.5mph /  13.7km/h 15mph /  24.1km/h 33.1% 0in /  0.0mm
18:34 91.9 °F /  33.3 °C 59.5 °F /  15.3 °C 29.9in /  1012.6hPa NE 8.5mph /  13.7km/h 15mph /  24.1km/h 34% 0in /  0.0mm
18:39 91.8 °F /  33.2 °C 60.6 °F /  15.9 °C 29.9in /  1012.6hPa NE 8.5mph /  13.7km/h 15mph /  24.1km/h 35.5% 0in /  0.0mm
18:44 91.9 °F /  33.3 °C 60.1 °F /  15.6 °C 29.9in /  1012.6hPa ENE 7.9mph /  12.7km/h 12.7mph /  20.4km/h 34.6% 0in /  0.0mm
18:49 91.9 °F /  33.3 °C 61.5 °F /  16.4 °C 29.9in /  1012.6hPa NE 7.6mph /  12.2km/h 11.2mph /  18km/h 36.3% 0in /  0.0mm
18:54 91.9 °F /  33.3 °C 62.8 °F /  17.1 °C 29.9in /  1012.6hPa NE 6.4mph /  10.3km/h 13.8mph /  22.2km/h 38% 0in /  0.0mm
18:59 91.8 °F /  33.2 °C 63.3 °F /  17.4 °C 29.9in /  1012.6hPa ENE 5.9mph /  9.5km/h 13.8mph /  22.2km/h 38.9% 0in /  0.0mm
19:04 91.6 °F /  33.1 °C 62.8 °F /  17.1 °C 29.9in /  1012.5hPa ENE 6.2mph /  9.9km/h 11.8mph /  19km/h 38.4% 0in /  0.0mm
19:09 91.6 °F /  33.1 °C 62.8 °F /  17.1 °C 29.9in /  1012.5hPa NE 6.2mph /  10km/h 13mph /  20.9km/h 38.8% 0in /  0.0mm
19:14 91 °F /  32.8 °C 63.7 °F /  17.6 °C 29.9in /  1012.5hPa NE 6.3mph /  10.2km/h 14mph /  22.5km/h 40.4% 0in /  0.0mm
19:19 90.9 °F /  32.7 °C 63.5 °F /  17.5 °C 29.9in /  1012.4hPa ENE 6.4mph /  10.3km/h 14mph /  22.5km/h 40.6% 0in /  0.0mm
19:24 90.7 °F /  32.6 °C 63.3 °F /  17.4 °C 29.9in /  1012.4hPa NE 7.2mph /  11.6km/h 12.7mph /  20.4km/h 40.5% 0in /  0.0mm
19:29 90.7 °F /  32.6 °C 65.8 °F /  18.8 °C 29.9in /  1012.4hPa NE 7.6mph /  12.2km/h 13.8mph /  22.2km/h 44% 0in /  0.0mm
19:34 90.5 °F /  32.5 °C 66.7 °F /  19.3 °C 29.9in /  1012.3hPa NE 6.6mph /  10.6km/h 11.8mph /  19km/h 45.8% 0in /  0.0mm
19:39 90.1 °F /  32.3 °C 67.1 °F /  19.5 °C 29.9in /  1012.3hPa NE 6.2mph /  10km/h 12.7mph /  20.4km/h 46.9% 0in /  0.0mm
19:44 89.8 °F /  32.1 °C 67.3 °F /  19.6 °C 29.9in /  1012.4hPa NE 6.7mph /  10.8km/h 12.7mph /  20.4km/h 47.6% 0in /  0.0mm
19:49 89.6 °F /  32 °C 66.6 °F /  19.2 °C 29.9in /  1012.4hPa NE 6.9mph /  11.1km/h 13mph /  20.9km/h 47% 0in /  0.0mm
19:54 89.2 °F /  31.8 °C 67.3 °F /  19.6 °C 29.9in /  1012.4hPa NE 7.4mph /  11.9km/h 14mph /  22.5km/h 48.4% 0in /  0.0mm
19:59 89.1 °F /  31.7 °C 67.5 °F /  19.7 °C 29.9in /  1012.5hPa NE 7.6mph /  12.2km/h 11.8mph /  19km/h 49.3% 0in /  0.0mm
20:04 88.7 °F /  31.5 °C 68 °F /  20 °C 29.9in /  1012.5hPa NE 7.5mph /  12km/h 13.8mph /  22.2km/h 50.5% 0in /  0.0mm
20:09 88.3 °F /  31.3 °C 68.5 °F /  20.3 °C 29.9in /  1012.5hPa NE 7.4mph /  11.9km/h 13mph /  20.9km/h 51.9% 0in /  0.0mm
20:14 88.2 °F /  31.2 °C 68.4 °F /  20.2 °C 29.9in /  1012.6hPa NE 7.9mph /  12.7km/h 12.7mph /  20.4km/h 52.4% 0in /  0.0mm
20:19 87.8 °F /  31 °C 68.7 °F /  20.4 °C 29.9in /  1012.6hPa NE 8.1mph /  13km/h 11.8mph /  19km/h 53.5% 0in /  0.0mm
20:24 87.4 °F /  30.8 °C 68.9 °F /  20.5 °C 29.9in /  1012.6hPa NE 7.6mph /  12.2km/h 10.4mph /  16.7km/h 54.1% 0in /  0.0mm
20:29 87.3 °F /  30.7 °C 69.3 °F /  20.7 °C 29.9in /  1012.7hPa NE 7.4mph /  11.9km/h 13.5mph /  21.7km/h 55.2% 0in /  0.0mm
20:34 87.1 °F /  30.6 °C 69.4 °F /  20.8 °C 29.9in /  1012.7hPa NE 7.4mph /  11.9km/h 14mph /  22.5km/h 56.1% 0in /  0.0mm
20:39 86.7 °F /  30.4 °C 69.8 °F /  21 °C 29.9in /  1012.7hPa NE 7.4mph /  11.9km/h 11.5mph /  18.5km/h 57.2% 0in /  0.0mm
20:44 86.4 °F /  30.2 °C 70.2 °F /  21.2 °C 29.9in /  1012.8hPa NE 7.5mph /  12.1km/h 11.5mph /  18.5km/h 58.5% 0in /  0.0mm
20:49 86 °F /  30 °C 70.7 °F /  21.5 °C 29.9in /  1012.8hPa NE 7.6mph /  12.2km/h 10.4mph /  16.7km/h 60.1% 0in /  0.0mm
20:54 85.6 °F /  29.8 °C 70.9 °F /  21.6 °C 29.9in /  1012.8hPa NE 6.7mph /  10.8km/h 13.8mph /  22.2km/h 61.4% 0in /  0.0mm
20:59 85.3 °F /  29.6 °C 70.9 °F /  21.6 °C 29.9in /  1013.0hPa NE 6.4mph /  10.3km/h 12.7mph /  20.4km/h 62.3% 0in /  0.0mm
21:04 84.7 °F /  29.3 °C 70.9 °F /  21.6 °C 29.9in /  1013.0hPa NE 7.3mph /  11.8km/h 12.7mph /  20.4km/h 63.1% 0in /  0.0mm
21:09 84.6 °F /  29.2 °C 71.1 °F /  21.7 °C 29.9in /  1013.0hPa NE 7.6mph /  12.2km/h 13mph /  20.9km/h 64% 0in /  0.0mm
21:14 84.6 °F /  29.2 °C 71.4 °F /  21.9 °C 29.9in /  1013.2hPa NE 7.5mph /  12km/h 12.7mph /  20.4km/h 64.9% 0in /  0.0mm
21:19 84.4 °F /  29.1 °C 71.4 °F /  21.9 °C 29.9in /  1013.2hPa NE 7.4mph /  11.9km/h 13mph /  20.9km/h 65.3% 0in /  0.0mm
21:24 84 °F /  28.9 °C 71.6 °F /  22 °C 29.9in /  1013.2hPa NE 6.7mph /  10.8km/h 11.5mph /  18.5km/h 66.2% 0in /  0.0mm
21:29 83.8 °F /  28.8 °C 71.8 °F /  22.1 °C 29.9in /  1013.4hPa NE 6.4mph /  10.3km/h 13mph /  20.9km/h 67.2% 0in /  0.0mm
21:34 83.7 °F /  28.7 °C 72.1 °F /  22.3 °C 29.9in /  1013.4hPa NE 6.8mph /  10.9km/h 12.7mph /  20.4km/h 68.1% 0in /  0.0mm
21:39 83.7 °F /  28.7 °C 72.3 °F /  22.4 °C 29.9in /  1013.4hPa NE 6.9mph /  11.1km/h 11.5mph /  18.5km/h 69% 0in /  0.0mm
21:44 83.5 °F /  28.6 °C 72.5 °F /  22.5 °C 29.9in /  1013.7hPa NE 6.4mph /  10.3km/h 11.8mph /  19km/h 69.7% 0in /  0.0mm
21:49 83.1 °F /  28.4 °C 72.3 °F /  22.4 °C 29.9in /  1013.7hPa NE 6.2mph /  10km/h 11.5mph /  18.5km/h 70% 0in /  0.0mm
21:54 83.1 °F /  28.4 °C 72.5 °F /  22.5 °C 29.9in /  1013.7hPa NE 6.7mph /  10.8km/h 12.3mph /  19.8km/h 70.8% 0in /  0.0mm
21:59 82.9 °F /  28.3 °C 72.7 °F /  22.6 °C 29.9in /  1014.0hPa NE 6.9mph /  11.1km/h 12.7mph /  20.4km/h 71% 0in /  0.0mm
22:04 82.8 °F /  28.2 °C 72.9 °F /  22.7 °C 29.9in /  1014.0hPa NE 6.5mph /  10.5km/h 9.2mph /  14.8km/h 71.9% 0in /  0.0mm
22:09 82.8 °F /  28.2 °C 72.9 °F /  22.7 °C 29.9in /  1014.0hPa NE 6.4mph /  10.3km/h 8.1mph /  13km/h 72% 0in /  0.0mm
22:14 82.8 °F /  28.2 °C 72.9 °F /  22.7 °C 29.9in /  1014.1hPa NNE 5.2mph /  8.3km/h 9.2mph /  14.8km/h 72.3% 0in /  0.0mm
22:19 82.6 °F /  28.1 °C 73 °F /  22.8 °C 29.9in /  1014.1hPa NE 4.7mph /  7.6km/h 9.2mph /  14.8km/h 73% 0in /  0.0mm
22:24 82.4 °F /  28 °C 72.9 °F /  22.7 °C 29.9in /  1014.1hPa NE 5mph /  8.1km/h 8.5mph /  13.7km/h 73% 0in /  0.0mm
22:29 82.4 °F /  28 °C 72.9 °F /  22.7 °C 30in /  1014.3hPa NE 5.2mph /  8.4km/h 5.8mph /  9.3km/h 73% 0in /  0.0mm
22:34 82.2 °F /  27.9 °C 72.7 °F /  22.6 °C 30in /  1014.3hPa NE 3.7mph /  5.9km/h 8.5mph /  13.7km/h 73% 0in /  0.0mm
22:39 82 °F /  27.8 °C 72.7 °F /  22.6 °C 30in /  1014.3hPa NE 3.1mph /  5km/h 8.1mph /  13km/h 73.3% 0in /  0.0mm
22:44 82 °F /  27.8 °C 72.9 °F /  22.7 °C 30in /  1014.4hPa NE 4.2mph /  6.8km/h 6.9mph /  11.1km/h 74% 0in /  0.0mm
22:49 81.9 °F /  27.7 °C 72.9 °F /  22.7 °C 30in /  1014.4hPa NE 4.7mph /  7.6km/h 8.1mph /  13km/h 74% 0in /  0.0mm
22:54 81.7 °F /  27.6 °C 72.7 °F /  22.6 °C 30in /  1014.4hPa NE 5mph /  8.1km/h 7.4mph /  11.9km/h 74% 0in /  0.0mm
22:59 81.7 °F /  27.6 °C 72.7 °F /  22.6 °C 30in /  1014.7hPa NE 5.2mph /  8.4km/h 6.9mph /  11.1km/h 74% 0in /  0.0mm
23:04 81.7 °F /  27.6 °C 72.9 °F /  22.7 °C 30in /  1014.7hPa NE 4.5mph /  7.3km/h 8.1mph /  13km/h 74.8% 0in /  0.0mm
23:09 81.7 °F /  27.6 °C 73 °F /  22.8 °C 30in /  1014.7hPa NE 4.3mph /  6.9km/h 6.9mph /  11.1km/h 75% 0in /  0.0mm
23:14 81.7 °F /  27.6 °C 73 °F /  22.8 °C 30in /  1014.8hPa NE 4.1mph /  6.6km/h 5.4mph /  8.7km/h 75% 0in /  0.0mm
23:19 81.9 °F /  27.7 °C 73.2 °F /  22.9 °C 30in /  1014.8hPa NE 4mph /  6.4km/h 5.9mph /  9.5km/h 75% 0in /  0.0mm
23:24 81.7 °F /  27.6 °C 73 °F /  22.8 °C 30in /  1014.8hPa NE 3.4mph /  5.4km/h 5.8mph /  9.3km/h 75% 0in /  0.0mm
23:29 81.7 °F /  27.6 °C 73 °F /  22.8 °C 30in /  1015.0hPa ENE 3.1mph /  5km/h 6.2mph /  10km/h 75% 0in /  0.0mm
23:34 81.7 °F /  27.6 °C 73.2 °F /  22.9 °C 30in /  1015.0hPa ENE 3.5mph /  5.6km/h 6.2mph /  10km/h 75.7% 0in /  0.0mm
23:39 81.7 °F /  27.6 °C 73.4 °F /  23 °C 30in /  1015.0hPa Este 3.6mph /  5.8km/h 5.8mph /  9.3km/h 76% 0in /  0.0mm
23:44 81.5 °F /  27.5 °C 73.2 °F /  22.9 °C 30in /  1015.0hPa Este 3.2mph /  5.2km/h 6.2mph /  10km/h 76% 0in /  0.0mm
23:49 81.3 °F /  27.4 °C 73.2 °F /  22.9 °C 30in /  1015.0hPa Este 3.1mph /  5km/h 5.9mph /  9.5km/h 76.2% 0in /  0.0mm
23:54 81.3 °F /  27.4 °C 73.4 °F /  23 °C 30in /  1015.0hPa Este 3.7mph /  6km/h 5.2mph /  8.4km/h 77% 0in /  0.0mm
23:59 81.3 °F /  27.4 °C 73.4 °F /  23 °C 30in /  1015.1hPa Este 4mph /  6.4km/h 5.8mph /  9.3km/h 77% 0in /  0.0mm
Murcia-Puente Tocinos, Espa?a
Compliments of Weather Underground - 3 mb

La estación de MeteoMurcia.com, publica sus datos en los siguientes proyectos:

Weather Underground PWS IMURCIAP2 Meteoclimatic www.awekas.at

Web Analytics

Clicky